Terminal Aerodrome Forecast
Issued by NWS

Home | Current Version | Previous Version | Text Only | Print | Product List | Glossary On
Versions: 1 2 3 4 5 6 7 8 9 10 11 12 13 14
000
FTAK31 PAJN 260500
TAFAWG
TAF
PAWG 260525Z 2606/2706 VRB04KT P6SM SCT005 BKN040 BKN080
     FM261100 04005KT P6SM SCT060
     FM262200 06009KT P6SM SCT100
     FM270000 06010G18KT P6SM SKC
      AMD LTD TO CLD VIS AND WIND 2606/2615=

USA.gov is the U.S. government's official web portal to all federal, state and local government web resources and services.